Time;durP1;ratioP1;P1;durP2;ratioP2;P2;SDS_P1;SDS_P2;PMS_P1;PMS_P2;Temp;Humidity;BMP_temperature;BMP_pressure;BME280_temperature;BME280_humidity;BME280_pressure;Samples;Min_cycle;Max_cycle;Signal;HPM_P1;HPM_P2
2021/11/03 00:02:11;;;;;;;22.87;10.60;;;;;;;;;;5114866;28;20616;-83
2021/11/03 00:04:41;;;;;;;31.13;12.50;;;;;;;;;;5115101;28;20219;-83
2021/11/03 00:07:11;;;;;;;24.27;11.97;;;;;;;;;;5115488;28;20238;-84
2021/11/03 00:09:38;;;;;;;37.63;12.97;;;;;;;;;;5115325;28;20199;-84
2021/11/03 00:12:08;;;;;;;38.43;13.03;;;;;;;;;;5114838;28;20253;-84
2021/11/03 00:14:35;;;;;;;30.37;11.23;;;;;;;;;;5115115;28;20601;-84
2021/11/03 00:17:04;;;;;;;35.93;12.73;;;;;;;;;;5114739;28;20621;-83
2021/11/03 00:19:32;;;;;;;29.90;12.67;;;;;;;;;;5114881;28;20252;-83
2021/11/03 00:21:59;;;;;;;40.60;13.03;;;;;;;;;;5115050;28;20230;-83
2021/11/03 00:24:26;;;;;;;48.73;13.93;;;;;;;;;;5114629;28;20234;-83
2021/11/03 00:26:53;;;;;;;49.43;11.83;;;;;;;;;;5114573;28;20277;-84
2021/11/03 00:29:21;;;;;;;29.70;9.57;;;;;;;;;;5114995;28;20323;-83
2021/11/03 00:31:48;;;;;;;27.03;10.50;;;;;;;;;;5114820;28;20196;-83
2021/11/03 00:34:17;;;;;;;43.20;13.17;;;;;;;;;;5114863;28;20276;-83
2021/11/03 00:36:44;;;;;;;45.67;13.23;;;;;;;;;;5114585;28;20265;-84
2021/11/03 00:39:11;;;;;;;27.63;10.10;;;;;;;;;;5114786;28;20227;-83
2021/11/03 00:41:39;;;;;;;32.07;11.90;;;;;;;;;;5114403;28;20199;-83
2021/11/03 00:44:07;;;;;;;46.37;13.73;;;;;;;;;;5114485;28;20219;-83
2021/11/03 00:46:34;;;;;;;38.47;11.40;;;;;;;;;;5114188;28;20233;-83
2021/11/03 00:49:01;;;;;;;52.57;12.67;;;;;;;;;;5114398;28;20193;-84
2021/11/03 00:51:30;;;;;;;48.80;11.73;;;;;;;;;;5114491;28;20227;-84
2021/11/03 00:53:58;;;;;;;75.13;16.07;;;;;;;;;;5114699;28;20187;-84
2021/11/03 00:56:25;;;;;;;20.30;9.10;;;;;;;;;;5114246;28;20627;-83
2021/11/03 00:58:52;;;;;;;41.83;11.93;;;;;;;;;;5113994;28;20199;-83
2021/11/03 01:01:20;;;;;;;25.53;11.63;;;;;;;;;;5113887;28;20242;-84
2021/11/03 01:03:47;;;;;;;35.80;11.77;;;;;;;;;;5114314;28;20223;-83
2021/11/03 01:06:15;;;;;;;41.43;12.47;;;;;;;;;;5113629;28;20195;-83
2021/11/03 01:08:44;;;;;;;21.40;10.23;;;;;;;;;;5113837;28;20218;-83
2021/11/03 01:11:11;;;;;;;38.80;11.10;;;;;;;;;;5113650;28;20188;-84
2021/11/03 01:13:38;;;;;;;32.50;8.50;;;;;;;;;;5114096;28;20614;-83
2021/11/03 01:16:06;;;;;;;29.73;11.53;;;;;;;;;;5113496;28;20199;-83
2021/11/03 01:18:34;;;;;;;19.00;8.33;;;;;;;;;;5113775;28;20199;-83
2021/11/03 01:21:03;;;;;;;12.73;7.97;;;;;;;;;;5113672;28;20234;-83
2021/11/03 01:23:31;;;;;;;9.70;7.00;;;;;;;;;;5113592;28;20280;-84
2021/11/03 01:26:00;;;;;;;8.37;7.47;;;;;;;;;;5113101;28;20327;-84
2021/11/03 01:28:27;;;;;;;8.63;7.40;;;;;;;;;;5112623;28;20754;-83
2021/11/03 01:30:55;;;;;;;7.53;6.77;;;;;;;;;;5114016;28;20279;-83
2021/11/03 01:33:23;;;;;;;8.80;6.87;;;;;;;;;;5131894;27;20270;-83
2021/11/03 01:35:50;;;;;;;7.20;6.40;;;;;;;;;;5131892;27;20271;-83
2021/11/03 01:38:17;;;;;;;7.50;6.80;;;;;;;;;;5133905;27;20199;-84
2021/11/03 01:40:47;;;;;;;7.20;6.57;;;;;;;;;;5133866;27;20199;-83
2021/11/03 01:43:20;;;;;;;7.63;6.93;;;;;;;;;;5133826;27;20564;-84
2021/11/03 01:45:48;;;;;;;7.10;6.40;;;;;;;;;;5133406;27;20218;-84
2021/11/03 01:48:16;;;;;;;8.93;8.13;;;;;;;;;;5133786;27;20183;-83
2021/11/03 01:50:49;;;;;;;8.30;7.50;;;;;;;;;;5133532;27;20293;-83
2021/11/03 01:53:19;;;;;;;7.80;7.00;;;;;;;;;;5134230;27;20215;-84
2021/11/03 01:55:50;;;;;;;7.90;7.10;;;;;;;;;;5133595;27;20214;-84
2021/11/03 01:58:21;;;;;;;7.17;6.57;;;;;;;;;;5133357;27;20222;-84
2021/11/03 02:00:49;;;;;;;14.23;11.50;;;;;;;;;;5133517;27;20238;-83
2021/11/03 02:03:20;;;;;;;10.50;9.40;;;;;;;;;;5133725;27;20194;-84
2021/11/03 02:05:50;;;;;;;9.90;8.90;;;;;;;;;;5132755;27;20223;-84
2021/11/03 02:08:18;;;;;;;10.90;9.80;;;;;;;;;;5133925;27;20221;-84
2021/11/03 02:10:46;;;;;;;21.13;15.60;;;;;;;;;;5132937;27;20728;-84
2021/11/03 02:13:14;;;;;;;44.47;29.37;;;;;;;;;;5132761;27;20195;-82
2021/11/03 02:15:44;;;;;;;30.63;14.03;;;;;;;;;;5132864;27;20190;-84
2021/11/03 02:18:13;;;;;;;13.17;10.40;;;;;;;;;;5117135;27;20671;-83
2021/11/03 02:20:43;;;;;;;9.57;8.43;;;;;;;;;;5112642;28;20728;-83
2021/11/03 02:23:17;;;;;;;8.67;7.77;;;;;;;;;;5113077;28;20278;-83
2021/11/03 02:25:48;;;;;;;9.30;8.30;;;;;;;;;;5112392;28;20227;-83
2021/11/03 02:28:16;;;;;;;16.57;10.60;;;;;;;;;;5112803;28;20184;-83
2021/11/03 02:30:44;;;;;;;10.70;9.60;;;;;;;;;;5125637;27;20281;-83
2021/11/03 02:33:17;;;;;;;12.87;11.37;;;;;;;;;;5133056;27;20191;-83
2021/11/03 02:35:50;;;;;;;10.40;9.40;;;;;;;;;;5133378;28;20183;-83
2021/11/03 02:38:28;;;;;;;10.73;9.27;;;;;;;;;;5133241;27;20214;-83
2021/11/03 02:40:59;;;;;;;11.70;10.17;;;;;;;;;;5133143;27;20182;-84
2021/11/03 02:43:28;;;;;;;23.30;10.80;;;;;;;;;;5133139;28;20179;-83
2021/11/03 02:45:58;;;;;;;21.63;9.97;;;;;;;;;;5132679;27;20214;-83
2021/11/03 02:48:27;;;;;;;25.33;6.80;;;;;;;;;;5133184;27;20290;-83
2021/11/03 02:51:02;;;;;;;6.53;4.63;;;;;;;;;;5133084;27;20282;-83
2021/11/03 02:53:30;;;;;;;5.60;5.10;;;;;;;;;;5132919;27;20267;-83
2021/11/03 02:55:59;;;;;;;6.17;5.57;;;;;;;;;;5132711;27;20247;-84
2021/11/03 02:58:26;;;;;;;5.90;5.30;;;;;;;;;;5132926;27;20205;-84
2021/11/03 03:00:55;;;;;;;14.40;5.47;;;;;;;;;;5132843;27;20191;-83
2021/11/03 03:03:22;;;;;;;10.57;6.27;;;;;;;;;;5133151;27;20191;-82
2021/11/03 03:05:56;;;;;;;6.23;5.50;;;;;;;;;;5132904;27;20321;-82
2021/11/03 03:08:23;;;;;;;27.17;13.03;;;;;;;;;;5133079;27;20205;-82
2021/11/03 03:10:51;;;;;;;20.90;14.80;;;;;;;;;;5132534;28;20248;-82
2021/11/03 03:13:19;;;;;;;17.13;11.47;;;;;;;;;;5132728;27;20336;-82
2021/11/03 03:15:47;;;;;;;17.03;11.60;;;;;;;;;;5132940;28;20191;-82
2021/11/03 03:18:14;;;;;;;10.93;9.30;;;;;;;;;;5132909;27;20738;-82
2021/11/03 03:20:41;;;;;;;10.57;9.17;;;;;;;;;;5132517;27;20201;-82
2021/11/03 03:23:08;;;;;;;7.23;6.53;;;;;;;;;;5132572;27;20199;-82
2021/11/03 03:25:38;;;;;;;6.20;5.60;;;;;;;;;;5132556;27;20267;-82
2021/11/03 03:28:06;;;;;;;5.50;5.00;;;;;;;;;;5133029;27;20209;-82
2021/11/03 03:30:35;;;;;;;5.90;5.40;;;;;;;;;;5133549;27;20602;-82
2021/11/03 03:33:02;;;;;;;6.10;5.50;;;;;;;;;;5133693;27;20194;-82
2021/11/03 03:35:30;;;;;;;6.03;5.53;;;;;;;;;;5128576;27;20218;-83
2021/11/03 03:37:57;;;;;;;6.97;6.37;;;;;;;;;;5131008;28;20190;-82
2021/11/03 03:40:24;;;;;;;8.73;7.83;;;;;;;;;;5131066;28;20199;-82
2021/11/03 03:42:51;;;;;;;69.77;51.90;;;;;;;;;;5131928;27;20222;-83
2021/11/03 03:45:19;;;;;;;31.73;25.20;;;;;;;;;;5132300;27;20302;-82
2021/11/03 03:47:48;;;;;;;16.03;13.10;;;;;;;;;;5132156;27;20296;-82
2021/11/03 03:50:15;;;;;;;19.03;16.50;;;;;;;;;;5131415;27;20256;-82
2021/11/03 03:52:43;;;;;;;48.40;35.93;;;;;;;;;;5133078;27;20202;-82
2021/11/03 03:55:11;;;;;;;29.53;20.57;;;;;;;;;;5135588;27;20191;-82
2021/11/03 03:57:39;;;;;;;72.77;45.43;;;;;;;;;;5135816;27;20747;-83
2021/11/03 04:00:11;;;;;;;179.63;88.20;;;;;;;;;;5130331;27;20196;-83
2021/11/03 04:02:38;;;;;;;163.97;83.10;;;;;;;;;;5124659;27;20232;-83
2021/11/03 04:05:09;;;;;;;31.53;20.23;;;;;;;;;;5134506;27;20571;-84
2021/11/03 04:07:36;;;;;;;23.60;17.40;;;;;;;;;;5131924;27;20256;-82
2021/11/03 04:10:04;;;;;;;48.80;11.50;;;;;;;;;;5134493;27;20226;-83
2021/11/03 04:12:31;;;;;;;22.03;11.00;;;;;;;;;;5129898;27;20222;-83
2021/11/03 04:14:59;;;;;;;17.90;8.27;;;;;;;;;;5131196;27;20205;-83
2021/11/03 04:17:26;;;;;;;10.50;6.13;;;;;;;;;;5113940;28;20200;-83
2021/11/03 04:20:01;;;;;;;10.83;9.27;;;;;;;;;;5115931;27;20681;-83
2021/11/03 04:22:30;;;;;;;7.87;6.67;;;;;;;;;;5133843;27;20186;-83
2021/11/03 04:24:57;;;;;;;15.20;12.33;;;;;;;;;;5129424;27;20219;-83
2021/11/03 04:27:24;;;;;;;33.07;20.43;;;;;;;;;;5113713;28;20227;-83
2021/11/03 04:29:51;;;;;;;177.90;92.33;;;;;;;;;;5115709;27;20260;-83
2021/11/03 04:32:19;;;;;;;38.00;26.00;;;;;;;;;;5134445;27;20252;-83
2021/11/03 04:34:46;;;;;;;16.23;11.57;;;;;;;;;;5147332;27;20195;-83
2021/11/03 04:37:13;;;;;;;23.00;15.83;;;;;;;;;;5126885;28;20195;-84
2021/11/03 04:39:42;;;;;;;80.27;57.27;;;;;;;;;;5131943;27;20200;-83
2021/11/03 04:42:10;;;;;;;39.77;29.63;;;;;;;;;;5131596;27;20204;-83
2021/11/03 04:44:37;;;;;;;17.13;14.40;;;;;;;;;;5131828;27;20359;-84
2021/11/03 04:47:06;;;;;;;19.07;17.17;;;;;;;;;;5151310;27;20195;-83
2021/11/03 04:49:33;;;;;;;21.60;18.97;;;;;;;;;;5141388;27;20235;-84
2021/11/03 04:52:00;;;;;;;27.67;24.93;;;;;;;;;;5113335;28;20664;-83
2021/11/03 04:54:28;;;;;;;27.47;22.40;;;;;;;;;;5113541;28;20275;-83
2021/11/03 04:56:56;;;;;;;28.40;25.33;;;;;;;;;;5116086;27;20305;-83
2021/11/03 04:59:24;;;;;;;24.23;21.67;;;;;;;;;;5113598;28;20249;-83
2021/11/03 05:01:51;;;;;;;19.57;14.03;;;;;;;;;;5133421;27;20213;-82
2021/11/03 05:04:19;;;;;;;13.83;10.43;;;;;;;;;;5134282;27;20251;-83
2021/11/03 05:06:48;;;;;;;8.67;7.50;;;;;;;;;;5130934;27;20241;-82
2021/11/03 05:09:17;;;;;;;8.03;7.23;;;;;;;;;;5132470;27;20255;-84
2021/11/03 05:11:45;;;;;;;9.50;7.13;;;;;;;;;;5125348;27;20203;-83
2021/11/03 05:14:14;;;;;;;7.07;6.40;;;;;;;;;;5113012;28;20192;-83
2021/11/03 05:16:41;;;;;;;6.57;5.97;;;;;;;;;;5112408;28;20733;-83
2021/11/03 05:19:08;;;;;;;13.03;11.73;;;;;;;;;;5112661;28;20235;-82
2021/11/03 05:21:37;;;;;;;15.30;13.53;;;;;;;;;;5115133;27;20200;-83
2021/11/03 05:24:05;;;;;;;41.33;35.07;;;;;;;;;;5112611;28;20200;-83
2021/11/03 05:26:33;;;;;;;28.43;25.47;;;;;;;;;;5112321;27;20292;-83
2021/11/03 05:29:02;;;;;;;25.87;23.37;;;;;;;;;;5114335;27;20299;-83
2021/11/03 05:31:30;;;;;;;20.77;18.63;;;;;;;;;;5113716;27;20309;-83
2021/11/03 05:33:58;;;;;;;26.70;23.90;;;;;;;;;;5113647;28;20632;-83
2021/11/03 05:36:28;;;;;;;33.90;28.17;;;;;;;;;;5113147;28;20682;-83
2021/11/03 05:38:57;;;;;;;52.13;43.27;;;;;;;;;;5113546;28;20640;-83
2021/11/03 05:41:24;;;;;;;113.13;75.87;;;;;;;;;;5112728;28;20206;-83
2021/11/03 05:43:51;;;;;;;232.80;157.43;;;;;;;;;;5113030;28;20241;-83
2021/11/03 05:46:21;;;;;;;106.20;75.30;;;;;;;;;;5112881;28;20223;-83
2021/11/03 05:48:54;;;;;;;67.73;49.93;;;;;;;;;;5113190;28;20199;-83
2021/11/03 05:51:22;;;;;;;43.17;34.67;;;;;;;;;;5112076;28;20585;-83
2021/11/03 05:53:49;;;;;;;21.43;18.77;;;;;;;;;;5113272;28;20287;-83
2021/11/03 05:56:17;;;;;;;18.73;16.67;;;;;;;;;;5112956;28;20314;-83
2021/11/03 05:58:44;;;;;;;23.50;18.87;;;;;;;;;;5113149;28;20196;-83
2021/11/03 06:01:11;;;;;;;14.53;13.00;;;;;;;;;;5113011;28;20294;-84
2021/11/03 06:03:39;;;;;;;13.20;10.87;;;;;;;;;;5112877;28;20684;-83
2021/11/03 06:06:08;;;;;;;11.83;10.63;;;;;;;;;;5113156;28;20252;-84
2021/11/03 06:08:35;;;;;;;8.10;7.27;;;;;;;;;;5112974;28;20192;-83
2021/11/03 06:11:05;;;;;;;13.57;12.30;;;;;;;;;;5112615;28;20196;-83
2021/11/03 06:13:32;;;;;;;11.60;10.40;;;;;;;;;;5112264;28;20195;-84
2021/11/03 06:16:00;;;;;;;9.33;8.47;;;;;;;;;;5112845;28;20630;-83
2021/11/03 06:18:27;;;;;;;12.43;11.23;;;;;;;;;;5113092;28;20576;-84
2021/11/03 06:20:54;;;;;;;20.27;18.20;;;;;;;;;;5112700;28;20227;-83
2021/11/03 06:23:23;;;;;;;18.17;16.47;;;;;;;;;;5112528;28;20568;-83
2021/11/03 06:25:50;;;;;;;25.10;22.70;;;;;;;;;;5112296;28;20303;-84
2021/11/03 06:28:18;;;;;;;25.60;23.10;;;;;;;;;;5112750;28;20188;-84
2021/11/03 06:30:46;;;;;;;21.10;19.10;;;;;;;;;;5112602;28;20204;-83
2021/11/03 06:33:14;;;;;;;16.17;14.60;;;;;;;;;;5112684;28;20191;-83
2021/11/03 06:35:43;;;;;;;15.47;14.03;;;;;;;;;;5112157;28;20742;-84
2021/11/03 06:38:14;;;;;;;18.57;16.77;;;;;;;;;;5112559;28;20291;-84
2021/11/03 06:40:44;;;;;;;20.10;18.20;;;;;;;;;;5112316;28;20667;-84
2021/11/03 06:43:12;;;;;;;19.57;17.67;;;;;;;;;;5112425;28;20223;-84
2021/11/03 06:45:40;;;;;;;13.90;12.47;;;;;;;;;;5112490;28;20310;-84
2021/11/03 06:48:08;;;;;;;11.77;10.77;;;;;;;;;;5112392;28;20198;-84
2021/11/03 06:50:37;;;;;;;14.33;13.00;;;;;;;;;;5112381;28;20226;-84
2021/11/03 06:53:07;;;;;;;13.73;12.53;;;;;;;;;;5112721;28;20231;-84
2021/11/03 06:55:34;;;;;;;13.93;12.63;;;;;;;;;;5112121;28;20195;-83
2021/11/03 06:58:03;;;;;;;13.60;12.40;;;;;;;;;;5112397;28;20227;-84
2021/11/03 07:00:34;;;;;;;8.67;7.87;;;;;;;;;;5112102;28;20672;-84
2021/11/03 07:03:01;;;;;;;7.50;6.90;;;;;;;;;;5112715;28;20195;-83
2021/11/03 07:05:29;;;;;;;8.77;7.97;;;;;;;;;;5111997;28;20219;-84
2021/11/03 07:07:57;;;;;;;11.83;10.77;;;;;;;;;;5112204;28;20204;-84
2021/11/03 07:10:26;;;;;;;18.17;16.23;;;;;;;;;;5111886;28;20199;-83
2021/11/03 07:12:53;;;;;;;27.93;25.23;;;;;;;;;;5112173;28;20587;-83
2021/11/03 07:15:22;;;;;;;14.00;12.70;;;;;;;;;;5112025;28;20280;-83
2021/11/03 07:17:50;;;;;;;11.33;10.33;;;;;;;;;;5112170;28;20198;-83
2021/11/03 07:20:18;;;;;;;11.57;10.53;;;;;;;;;;5111806;28;20198;-83
2021/11/03 07:22:46;;;;;;;8.13;7.43;;;;;;;;;;5112426;28;20227;-83
2021/11/03 07:25:16;;;;;;;7.93;7.23;;;;;;;;;;5111847;28;20200;-83
2021/11/03 07:27:44;;;;;;;9.07;8.07;;;;;;;;;;5115712;28;20242;-83
2021/11/03 07:30:13;;;;;;;8.67;7.87;;;;;;;;;;5114913;28;20239;-83
2021/11/03 07:32:42;;;;;;;21.00;18.93;;;;;;;;;;5114166;28;20200;-84
2021/11/03 07:35:09;;;;;;;29.13;25.73;;;;;;;;;;5115564;28;20231;-83
2021/11/03 07:37:37;;;;;;;10.33;9.43;;;;;;;;;;5115963;28;20195;-83
2021/11/03 07:40:06;;;;;;;9.17;8.37;;;;;;;;;;5115829;28;20195;-83
2021/11/03 07:42:33;;;;;;;10.00;9.00;;;;;;;;;;5115653;28;20196;-84
2021/11/03 07:45:01;;;;;;;9.00;8.20;;;;;;;;;;5115617;28;20267;-83
2021/11/03 07:47:28;;;;;;;7.53;6.83;;;;;;;;;;5115370;28;20224;-83
2021/11/03 07:49:57;;;;;;;11.83;8.03;;;;;;;;;;5115798;28;20252;-83
2021/11/03 07:52:24;;;;;;;9.33;7.70;;;;;;;;;;5115437;28;20218;-83
2021/11/03 07:54:51;;;;;;;8.67;7.57;;;;;;;;;;5115237;28;20244;-84
2021/11/03 07:57:19;;;;;;;9.07;7.67;;;;;;;;;;5115490;28;20686;-83
2021/11/03 07:59:47;;;;;;;8.70;7.90;;;;;;;;;;5115678;28;20573;-83
2021/11/03 08:02:14;;;;;;;8.23;7.43;;;;;;;;;;5115349;28;20289;-83
2021/11/03 08:04:41;;;;;;;7.50;6.87;;;;;;;;;;5115532;28;20218;-83
2021/11/03 08:07:11;;;;;;;7.57;6.97;;;;;;;;;;5114834;28;20268;-83
2021/11/03 08:09:43;;;;;;;7.40;6.80;;;;;;;;;;5115344;28;20543;-83
2021/11/03 08:12:11;;;;;;;7.07;6.37;;;;;;;;;;5115167;28;20192;-83
2021/11/03 08:14:39;;;;;;;7.37;6.67;;;;;;;;;;5115169;28;20195;-83
2021/11/03 08:17:09;;;;;;;7.40;6.70;;;;;;;;;;5114933;28;20192;-83
2021/11/03 08:19:41;;;;;;;7.27;6.57;;;;;;;;;;5115296;28;20574;-83
2021/11/03 08:22:12;;;;;;;7.33;6.63;;;;;;;;;;5114814;28;20267;-83
2021/11/03 08:24:39;;;;;;;7.77;6.97;;;;;;;;;;5115299;28;20250;-83
2021/11/03 08:27:07;;;;;;;6.47;5.83;;;;;;;;;;5114620;28;20257;-84
2021/11/03 08:29:38;;;;;;;6.13;5.53;;;;;;;;;;5114627;28;20233;-83
2021/11/03 08:32:06;;;;;;;9.70;7.40;;;;;;;;;;5115013;28;20187;-84
2021/11/03 08:34:35;;;;;;;8.77;8.00;;;;;;;;;;5114744;28;20707;-83
2021/11/03 08:37:06;;;;;;;8.27;7.57;;;;;;;;;;5114192;28;20622;-83
2021/11/03 08:39:36;;;;;;;8.40;7.70;;;;;;;;;;5115076;27;20237;-83
2021/11/03 08:42:04;;;;;;;8.63;7.83;;;;;;;;;;5114669;28;20208;-84
2021/11/03 08:44:33;;;;;;;8.67;7.87;;;;;;;;;;5114823;28;20206;-84
2021/11/03 08:47:02;;;;;;;10.53;8.77;;;;;;;;;;5114229;28;20231;-84
2021/11/03 08:49:30;;;;;;;9.47;8.57;;;;;;;;;;5114322;28;20224;-84
2021/11/03 08:51:58;;;;;;;8.80;7.97;;;;;;;;;;5114262;28;20733;-84
2021/11/03 08:54:25;;;;;;;10.97;9.87;;;;;;;;;;5114391;28;20276;-83
2021/11/03 08:56:54;;;;;;;9.63;8.03;;;;;;;;;;5113798;28;20272;-84
2021/11/03 08:59:21;;;;;;;8.50;7.37;;;;;;;;;;5114143;28;20241;-84
2021/11/03 09:01:49;;;;;;;8.83;7.93;;;;;;;;;;5113913;28;20198;-84
2021/11/03 09:04:17;;;;;;;8.60;7.70;;;;;;;;;;5114325;28;20192;-84
2021/11/03 09:06:44;;;;;;;8.33;7.60;;;;;;;;;;5113679;28;20268;-84
2021/11/03 09:09:11;;;;;;;11.30;8.27;;;;;;;;;;5114294;28;20228;-84
2021/11/03 09:11:38;;;;;;;9.83;8.90;;;;;;;;;;5113958;28;20227;-84
2021/11/03 09:14:07;;;;;;;9.83;8.83;;;;;;;;;;5113942;28;20241;-84
2021/11/03 09:16:35;;;;;;;8.90;8.00;;;;;;;;;;5113362;28;20285;-84
2021/11/03 09:19:02;;;;;;;8.50;7.60;;;;;;;;;;5113898;28;20226;-84
2021/11/03 09:21:29;;;;;;;8.90;8.10;;;;;;;;;;5113575;28;20231;-84
2021/11/03 09:23:57;;;;;;;7.47;6.77;;;;;;;;;;5113502;28;20205;-84
2021/11/03 09:26:24;;;;;;;6.37;5.77;;;;;;;;;;5113309;28;20280;-84
2021/11/03 09:28:52;;;;;;;5.40;4.97;;;;;;;;;;5113695;28;20199;-84
2021/11/03 09:31:21;;;;;;;5.40;4.90;;;;;;;;;;5113832;28;20196;-85
2021/11/03 09:33:48;;;;;;;5.73;5.23;;;;;;;;;;5113407;28;20724;-85
2021/11/03 09:36:20;;;;;;;4.80;4.40;;;;;;;;;;5113145;28;20256;-84
2021/11/03 09:38:48;;;;;;;4.90;4.50;;;;;;;;;;5114045;28;20264;-84
2021/11/03 09:41:21;;;;;;;6.40;4.07;;;;;;;;;;5113281;28;20203;-84
2021/11/03 09:43:51;;;;;;;5.10;4.70;;;;;;;;;;5113710;28;20233;-85
2021/11/03 09:46:22;;;;;;;5.23;4.67;;;;;;;;;;5113171;28;20296;-85
2021/11/03 09:48:53;;;;;;;6.53;5.47;;;;;;;;;;5112608;28;20640;-85
2021/11/03 09:51:23;;;;;;;7.83;7.03;;;;;;;;;;5113122;28;20184;-84
2021/11/03 09:53:53;;;;;;;5.57;4.93;;;;;;;;;;5113177;28;20660;-84
2021/11/03 09:56:23;;;;;;;5.67;2.97;;;;;;;;;;5113336;28;20219;-84
2021/11/03 09:59:00;;;;;;;3.20;2.90;;;;;;;;;;5113048;28;20206;-84
2021/11/03 10:01:39;;;;;;;3.63;2.70;;;;;;;;;;5113033;28;20179;-84
2021/11/03 10:04:18;;;;;;;3.70;3.40;;;;;;;;;;5113226;28;20184;-84
2021/11/03 10:06:50;;;;;;;3.10;2.80;;;;;;;;;;5113095;28;20683;-84
2021/11/03 10:09:17;;;;;;;4.77;2.60;;;;;;;;;;5113099;28;20188;-84
2021/11/03 10:11:47;;;;;;;3.17;2.93;;;;;;;;;;5112890;28;20254;-84
2021/11/03 10:14:15;;;;;;;6.40;3.73;;;;;;;;;;5112771;27;20264;-84
2021/11/03 10:16:46;;;;;;;5.67;5.17;;;;;;;;;;5112880;28;20286;-84
2021/11/03 10:19:29;;;;;;;4.63;3.93;;;;;;;;;;5113260;28;20192;-84
2021/11/03 10:21:59;;;;;;;5.03;4.53;;;;;;;;;;5112664;28;20190;-84
2021/11/03 10:24:34;;;;;;;4.73;4.33;;;;;;;;;;5112610;28;20664;-84
2021/11/03 10:27:12;;;;;;;5.77;5.20;;;;;;;;;;5112720;28;20242;-84
2021/11/03 10:29:42;;;;;;;11.43;4.83;;;;;;;;;;5112992;28;20274;-84
2021/11/03 10:32:21;;;;;;;5.23;4.77;;;;;;;;;;5112627;28;20198;-84
2021/11/03 10:34:51;;;;;;;5.50;5.00;;;;;;;;;;5112825;28;20253;-84
2021/11/03 10:37:22;;;;;;;4.80;4.43;;;;;;;;;;5112577;28;20190;-84
2021/11/03 10:39:57;;;;;;;4.50;4.10;;;;;;;;;;5112918;28;20189;-84
2021/11/03 10:42:30;;;;;;;5.27;4.70;;;;;;;;;;5112595;28;20223;-84
2021/11/03 10:45:18;;;;;;;4.93;4.53;;;;;;;;;;5112458;28;20220;-84
2021/11/03 10:47:50;;;;;;;5.90;4.57;;;;;;;;;;5112218;28;20272;-84
2021/11/03 10:50:30;;;;;;;4.40;4.00;;;;;;;;;;5112444;28;20184;-84
2021/11/03 10:53:00;;;;;;;5.90;5.20;;;;;;;;;;5143202;27;20679;-84
2021/11/03 10:55:30;;;;;;;6.47;5.87;;;;;;;;;;5112781;28;20562;-84
2021/11/03 10:58:04;;;;;;;7.57;6.87;;;;;;;;;;5112484;28;20188;-84
2021/11/03 11:00:33;;;;;;;8.53;7.23;;;;;;;;;;5115155;28;20237;-85
2021/11/03 11:03:05;;;;;;;6.60;6.00;;;;;;;;;;5116728;28;20242;-84
2021/11/03 11:05:35;;;;;;;7.87;6.00;;;;;;;;;;5116478;28;20183;-84
2021/11/03 11:08:07;;;;;;;5.90;5.30;;;;;;;;;;5116418;28;20242;-84
2021/11/03 11:10:41;;;;;;;5.73;5.13;;;;;;;;;;5116699;28;20222;-84
2021/11/03 11:13:17;;;;;;;4.90;4.40;;;;;;;;;;5116269;28;20183;-84
2021/11/03 11:15:52;;;;;;;5.93;4.70;;;;;;;;;;5116444;28;20195;-85
2021/11/03 11:18:40;;;;;;;5.03;4.53;;;;;;;;;;5116513;28;20187;-84
2021/11/03 11:21:14;;;;;;;4.93;4.47;;;;;;;;;;5115925;28;20191;-84
2021/11/03 11:23:46;;;;;;;4.53;4.10;;;;;;;;;;5116277;28;20188;-84
2021/11/03 11:26:24;;;;;;;4.90;4.40;;;;;;;;;;5115916;28;20703;-84
2021/11/03 11:28:59;;;;;;;4.93;4.53;;;;;;;;;;5115976;28;20215;-84
2021/11/03 11:31:34;;;;;;;4.40;3.97;;;;;;;;;;5115879;28;20218;-84
2021/11/03 11:34:08;;;;;;;11.67;9.03;;;;;;;;;;5116455;28;20179;-84
2021/11/03 11:36:39;;;;;;;4.73;3.90;;;;;;;;;;5115545;28;20707;-84
2021/11/03 11:39:16;;;;;;;8.73;6.50;;;;;;;;;;5116452;28;20184;-84
2021/11/03 11:41:56;;;;;;;4.40;4.00;;;;;;;;;;5115868;28;20222;-84
2021/11/03 11:44:27;;;;;;;6.90;4.67;;;;;;;;;;5115918;28;20196;-84
2021/11/03 11:46:57;;;;;;;4.47;3.60;;;;;;;;;;5115377;28;20273;-84
2021/11/03 11:49:28;;;;;;;4.90;3.73;;;;;;;;;;5115819;28;20241;-84
2021/11/03 11:52:00;;;;;;;4.27;3.97;;;;;;;;;;5115743;28;20223;-84
2021/11/03 11:54:35;;;;;;;6.03;4.83;;;;;;;;;;5115736;28;20616;-85
2021/11/03 11:57:36;;;;;;;5.97;5.37;;;;;;;;;;5115586;28;20241;-84
2021/11/03 12:00:21;;;;;;;8.13;6.40;;;;;;;;;;5032670;28;20187;-84
2021/11/03 12:02:57;;;;;;;6.67;6.07;;;;;;;;;;5032997;28;20182;-84
2021/11/03 12:05:32;;;;;;;7.53;6.83;;;;;;;;;;5033022;28;20198;-84
2021/11/03 12:08:16;;;;;;;6.20;5.57;;;;;;;;;;5032767;28;20210;-84
2021/11/03 12:10:44;;;;;;;6.60;6.10;;;;;;;;;;5032444;28;20194;-84
2021/11/03 12:13:20;;;;;;;7.60;6.37;;;;;;;;;;5032343;28;20201;-85
2021/11/03 12:16:05;;;;;;;8.60;6.60;;;;;;;;;;5032449;28;20190;-84
2021/11/03 12:18:45;;;;;;;6.73;6.13;;;;;;;;;;5032885;28;20590;-85
2021/11/03 12:21:16;;;;;;;7.30;6.60;;;;;;;;;;5032474;28;20190;-84
2021/11/03 12:23:51;;;;;;;7.97;6.90;;;;;;;;;;5032646;28;20276;-84
2021/11/03 12:26:43;;;;;;;7.10;6.40;;;;;;;;;;5032061;28;20236;-85
2021/11/03 12:29:29;;;;;;;6.33;5.73;;;;;;;;;;5032542;28;20181;-84
2021/11/03 12:32:00;;;;;;;7.40;6.70;;;;;;;;;;5106376;28;20282;-85
2021/11/03 12:34:35;;;;;;;8.20;7.40;;;;;;;;;;5115149;28;20644;-85
2021/11/03 12:37:32;;;;;;;8.17;6.40;;;;;;;;;;5114933;28;20653;-85
2021/11/03 12:40:26;;;;;;;10.50;8.60;;;;;;;;;;5114709;28;20184;-85
2021/11/03 12:43:04;;;;;;;9.90;8.43;;;;;;;;;;5114650;28;20187;-85
2021/11/03 12:45:36;;;;;;;8.97;8.07;;;;;;;;;;5114861;28;20257;-85
2021/11/03 12:48:04;;;;;;;13.10;8.73;;;;;;;;;;5114606;28;20744;-85
2021/11/03 12:50:35;;;;;;;8.97;7.97;;;;;;;;;;5114348;28;20203;-85
2021/11/03 12:53:13;;;;;;;12.93;10.13;;;;;;;;;;5114554;28;20640;-85
2021/11/03 12:55:48;;;;;;;8.67;7.77;;;;;;;;;;5114271;28;20223;-85
2021/11/03 12:58:34;;;;;;;10.43;6.87;;;;;;;;;;5114673;28;20179;-85
2021/11/03 13:01:03;;;;;;;7.07;6.37;;;;;;;;;;5113828;28;20187;-85
2021/11/03 13:03:32;;;;;;;6.07;5.57;;;;;;;;;;5114464;28;20642;-85
2021/11/03 13:06:01;;;;;;;6.50;5.77;;;;;;;;;;5114045;28;20196;-84
2021/11/03 13:08:32;;;;;;;7.67;6.87;;;;;;;;;;5114199;28;20219;-85
2021/11/03 13:11:02;;;;;;;7.13;6.43;;;;;;;;;;5114218;28;20183;-84
2021/11/03 13:13:29;;;;;;;6.57;5.87;;;;;;;;;;5114118;28;20729;-85
2021/11/03 13:16:01;;;;;;;6.13;5.33;;;;;;;;;;5113889;28;20203;-85
2021/11/03 13:18:35;;;;;;;7.57;6.27;;;;;;;;;;5114257;28;20278;-84
2021/11/03 13:21:05;;;;;;;6.90;6.27;;;;;;;;;;5114093;28;20541;-85
2021/11/03 13:23:36;;;;;;;7.77;7.07;;;;;;;;;;5114235;28;20266;-85
2021/11/03 13:26:07;;;;;;;7.00;6.10;;;;;;;;;;5113619;28;20284;-85
2021/11/03 13:28:36;;;;;;;6.57;5.97;;;;;;;;;;5114165;28;20294;-85
2021/11/03 13:31:05;;;;;;;7.13;6.53;;;;;;;;;;5113557;28;20199;-84
2021/11/03 13:33:34;;;;;;;7.90;7.10;;;;;;;;;;5113696;28;20191;-84
2021/11/03 13:36:07;;;;;;;7.33;6.63;;;;;;;;;;5113415;28;20242;-84
2021/11/03 13:38:38;;;;;;;6.50;5.90;;;;;;;;;;5113589;28;20191;-85
2021/11/03 13:41:06;;;;;;;7.40;4.83;;;;;;;;;;5113374;28;20251;-84
2021/11/03 13:43:36;;;;;;;6.63;6.03;;;;;;;;;;5113580;28;20191;-84
2021/11/03 13:46:26;;;;;;;8.93;6.63;;;;;;;;;;5113647;28;20202;-85
2021/11/03 13:49:00;;;;;;;9.47;6.40;;;;;;;;;;5113810;28;20207;-84
2021/11/03 13:51:30;;;;;;;8.23;7.47;;;;;;;;;;5113613;28;20246;-84
2021/11/03 13:54:02;;;;;;;6.87;6.17;;;;;;;;;;5113308;28;20208;-85
2021/11/03 13:56:32;;;;;;;11.47;7.13;;;;;;;;;;5113340;28;20242;-84
2021/11/03 13:59:03;;;;;;;7.03;6.33;;;;;;;;;;5113315;28;20235;-85
2021/11/03 14:01:30;;;;;;;6.80;6.20;;;;;;;;;;5112986;28;20191;-84
2021/11/03 14:04:14;;;;;;;6.33;5.43;;;;;;;;;;5113219;28;20199;-84
2021/11/03 14:06:46;;;;;;;5.80;5.30;;;;;;;;;;5113415;28;20187;-85
2021/11/03 14:09:17;;;;;;;8.63;6.20;;;;;;;;;;5113085;28;20202;-84
2021/11/03 14:11:45;;;;;;;9.33;7.30;;;;;;;;;;5113156;28;20636;-84
2021/11/03 14:14:14;;;;;;;11.77;10.57;;;;;;;;;;5112659;28;20201;-84
2021/11/03 14:16:49;;;;;;;12.10;10.73;;;;;;;;;;5112685;28;20249;-84
2021/11/03 14:19:23;;;;;;;7.93;6.67;;;;;;;;;;5113109;28;20192;-84
2021/11/03 14:21:51;;;;;;;10.07;8.97;;;;;;;;;;5112735;28;20193;-84
2021/11/03 14:24:24;;;;;;;9.47;8.47;;;;;;;;;;5112620;28;20257;-83
2021/11/03 14:26:51;;;;;;;16.30;14.33;;;;;;;;;;5112553;28;20239;-84
2021/11/03 14:29:18;;;;;;;13.27;11.60;;;;;;;;;;5113083;28;20310;-83
2021/11/03 14:31:47;;;;;;;13.57;9.83;;;;;;;;;;5112738;28;20257;-83
2021/11/03 14:34:18;;;;;;;7.77;7.07;;;;;;;;;;5112808;28;20192;-84
2021/11/03 14:36:46;;;;;;;8.83;7.93;;;;;;;;;;5112359;28;20188;-84
2021/11/03 14:39:20;;;;;;;9.07;8.03;;;;;;;;;;5112861;28;20279;-84
2021/11/03 14:41:48;;;;;;;8.57;7.07;;;;;;;;;;5112644;28;20221;-84
2021/11/03 14:44:15;;;;;;;10.10;8.90;;;;;;;;;;5112806;28;20200;-85
2021/11/03 14:46:46;;;;;;;7.20;6.50;;;;;;;;;;5112137;28;20238;-85
2021/11/03 14:49:26;;;;;;;13.47;9.00;;;;;;;;;;5112838;28;20291;-84
2021/11/03 14:51:53;;;;;;;11.90;10.23;;;;;;;;;;5112443;28;20248;-83